Time;durP1;ratioP1;P1;durP2;ratioP2;P2;SDS_P1;SDS_P2;PMS_P1;PMS_P2;Temp;Humidity;BMP_temperature;BMP_pressure;BME280_temperature;BME280_humidity;BME280_pressure;Samples;Min_cycle;Max_cycle;Signal;HPM_P1;HPM_P2
2022/05/13 00:00:35;;;;;;;1.00;0.57;;;15.60;56.40;;;;;;5089544;28;20085;-65
2022/05/13 00:03:01;;;;;;;0.93;0.68;;;15.60;56.50;;;;;;5105835;28;20040;-65
2022/05/13 00:05:27;;;;;;;0.40;0.40;;;15.60;56.60;;;;;;5089467;28;20452;-61
2022/05/13 00:07:52;;;;;;;1.75;0.57;;;15.60;56.70;;;;;;5090607;28;20048;-65
2022/05/13 00:10:18;;;;;;;1.45;0.20;;;15.50;56.70;;;;;;5089576;28;20020;-65
2022/05/13 00:12:44;;;;;;;0.60;0.60;;;15.50;56.80;;;;;;5090518;28;20046;-65
2022/05/13 00:15:18;;;;;;;0.50;0.50;;;15.40;56.90;;;;;;5097281;28;20027;-65
2022/05/13 00:17:43;;;;;;;0.73;0.43;;;15.40;57.10;;;;;;5088958;28;20068;-65
2022/05/13 00:20:11;;;;;;;0.50;0.40;;;15.30;57.30;;;;;;5079986;28;20020;-65
2022/05/13 00:22:44;;;;;;;0.40;0.40;;;15.20;57.40;;;;;;5109869;28;20378;-65
2022/05/13 00:25:10;;;;;;;1.52;0.65;;;15.20;57.60;;;;;;5110029;28;20453;-61
2022/05/13 00:27:36;;;;;;;1.55;0.75;;;15.20;57.70;;;;;;5096796;28;20056;-60
2022/05/13 00:30:03;;;;;;;0.40;0.40;;;15.10;57.70;;;;;;5109740;28;20101;-61
2022/05/13 00:32:29;;;;;;;0.75;0.60;;;15.10;57.80;;;;;;5072687;28;20147;-60
2022/05/13 00:34:55;;;;;;;1.02;0.60;;;15.10;58.10;;;;;;5109978;28;20114;-60
2022/05/13 00:37:20;;;;;;;1.08;0.70;;;15.00;58.10;;;;;;5107060;28;20030;-60
2022/05/13 00:39:46;;;;;;;0.60;0.55;;;15.00;58.10;;;;;;5085169;28;20023;-61
2022/05/13 00:42:17;;;;;;;3.33;1.10;;;15.00;58.30;;;;;;5088842;28;20020;-60
2022/05/13 00:44:44;;;;;;;1.02;0.80;;;15.00;58.50;;;;;;5097995;28;20128;-65
2022/05/13 00:47:11;;;;;;;3.40;0.68;;;14.90;58.30;;;;;;5076712;28;20024;-65
2022/05/13 00:49:38;;;;;;;4.32;0.70;;;14.90;58.40;;;;;;5072039;28;20376;-65
2022/05/13 00:52:05;;;;;;;0.95;0.60;;;14.90;58.50;;;;;;5092473;28;20024;-65
2022/05/13 00:54:33;;;;;;;0.98;0.75;;;14.90;58.50;;;;;;5087959;28;20097;-65
2022/05/13 00:56:59;;;;;;;1.10;0.68;;;14.90;58.50;;;;;;5108510;28;20034;-65
2022/05/13 00:59:28;;;;;;;1.35;0.70;;;14.80;58.50;;;;;;5107975;28;20028;-65
2022/05/13 01:01:54;;;;;;;0.20;0.20;;;14.80;58.50;;;;;;5109352;28;20038;-65
2022/05/13 01:04:21;;;;;;;0.52;0.38;;;14.80;58.70;;;;;;5088367;28;20028;-65
2022/05/13 01:06:52;;;;;;;3.05;0.80;;;14.80;58.80;;;;;;5104762;28;20092;-65
2022/05/13 01:09:21;;;;;;;2.42;0.65;;;14.80;58.90;;;;;;5107830;28;20969;-65
2022/05/13 01:11:52;;;;;;;3.10;0.65;;;14.80;58.90;;;;;;5072449;28;20029;-65
2022/05/13 01:14:35;;;;;;;0.52;0.52;;;14.80;58.90;;;;;;5087323;28;20032;-65
2022/05/13 01:20:14;;;;;;;0.85;0.60;;;14.70;59.00;;;;;;5090099;28;20047;-65
2022/05/13 01:22:49;;;;;;;1.77;0.65;;;14.70;59.30;;;;;;5110008;28;20023;-65
2022/05/13 01:25:19;;;;;;;2.35;0.90;;;14.60;59.30;;;;;;5107757;28;20038;-65
2022/05/13 01:27:46;;;;;;;3.03;0.90;;;14.60;59.30;;;;;;5094480;28;20036;-65
2022/05/13 01:30:18;;;;;;;1.55;1.05;;;14.60;59.80;;;;;;5089112;28;20028;-65
2022/05/13 01:32:43;;;;;;;1.30;0.47;;;14.50;59.80;;;;;;5087881;28;20114;-65
2022/05/13 01:35:09;;;;;;;0.90;0.80;;;14.50;60.00;;;;;;5100676;28;20213;-65
2022/05/13 01:37:35;;;;;;;1.13;0.80;;;14.40;60.30;;;;;;5091489;28;20032;-65
2022/05/13 01:40:04;;;;;;;0.60;0.52;;;14.30;60.40;;;;;;5106483;28;20024;-66
2022/05/13 01:42:31;;;;;;;0.80;0.73;;;14.30;60.40;;;;;;5106186;28;20031;-65
2022/05/13 01:44:57;;;;;;;1.05;0.60;;;14.30;60.50;;;;;;5085994;28;20443;-66
2022/05/13 01:47:24;;;;;;;4.22;0.60;;;14.30;60.60;;;;;;5050684;28;20040;-66
2022/05/13 01:49:50;;;;;;;2.28;0.65;;;14.30;60.70;;;;;;5079142;28;20119;-66
2022/05/13 01:52:16;;;;;;;1.75;0.82;;;14.30;60.90;;;;;;5097041;28;20537;-66
2022/05/13 01:54:41;;;;;;;0.52;0.52;;;14.20;61.00;;;;;;5110046;28;20054;-66
2022/05/13 01:57:07;;;;;;;0.35;0.35;;;14.30;61.20;;;;;;5088625;28;20119;-65
2022/05/13 01:59:33;;;;;;;0.85;0.80;;;14.20;61.10;;;;;;5097596;28;20398;-65
2022/05/13 02:01:58;;;;;;;9.07;1.08;;;14.20;61.90;;;;;;5083123;28;20078;-65
2022/05/13 02:04:24;;;;;;;0.77;0.52;;;14.20;61.60;;;;;;5094687;28;20042;-65
2022/05/13 02:06:50;;;;;;;1.58;0.80;;;14.20;61.50;;;;;;5097236;28;20066;-65
2022/05/13 02:09:15;;;;;;;0.47;0.47;;;14.20;61.60;;;;;;5057398;28;20043;-65
2022/05/13 02:11:41;;;;;;;0.60;0.55;;;14.20;61.60;;;;;;5092242;28;20032;-60
2022/05/13 02:14:08;;;;;;;1.83;0.68;;;14.10;61.60;;;;;;5092311;28;20032;-65
2022/05/13 02:16:34;;;;;;;1.00;0.63;;;14.10;62.00;;;;;;5092842;28;20036;-65
2022/05/13 02:18:59;;;;;;;0.95;0.90;;;14.00;62.30;;;;;;5074153;28;20038;-65
2022/05/13 02:21:25;;;;;;;0.40;0.40;;;14.00;62.40;;;;;;5091747;28;20532;-65
2022/05/13 02:23:52;;;;;;;1.58;0.60;;;14.00;62.40;;;;;;5092940;28;20481;-65
2022/05/13 02:26:18;;;;;;;0.57;0.40;;;14.00;62.50;;;;;;5107197;28;20398;-65
2022/05/13 02:28:44;;;;;;;2.65;0.95;;;14.00;62.50;;;;;;5092327;28;20032;-65
2022/05/13 02:31:11;;;;;;;2.63;0.70;;;14.00;62.70;;;;;;5074991;28;20028;-65
2022/05/13 02:33:37;;;;;;;5.32;1.10;;;13.90;62.80;;;;;;5103739;28;20414;-65
2022/05/13 02:36:05;;;;;;;2.10;0.93;;;13.90;62.90;;;;;;5112902;28;20022;-65
2022/05/13 02:38:31;;;;;;;2.20;0.88;;;13.90;63.00;;;;;;5096533;28;20032;-65
2022/05/13 02:41:13;;;;;;;3.15;0.77;;;13.90;63.20;;;;;;5096900;28;20028;-65
2022/05/13 02:43:50;;;;;;;1.13;0.65;;;13.90;63.40;;;;;;5078505;28;20379;-65
2022/05/13 02:46:32;;;;;;;0.65;0.63;;;13.90;63.40;;;;;;5109691;28;20031;-65
2022/05/13 02:48:59;;;;;;;0.85;0.70;;;13.80;63.40;;;;;;5111017;28;20045;-60
2022/05/13 02:51:26;;;;;;;0.38;0.38;;;13.80;63.60;;;;;;5112531;28;20023;-60
2022/05/13 02:53:52;;;;;;;1.35;0.50;;;13.80;63.70;;;;;;5096623;28;20033;-60
2022/05/13 02:56:18;;;;;;;2.38;0.93;;;13.80;64.00;;;;;;5073272;28;20457;-60
2022/05/13 02:58:45;;;;;;;0.55;0.55;;;13.80;64.10;;;;;;5091042;28;20028;-61
2022/05/13 03:01:12;;;;;;;0.98;0.45;;;13.80;64.20;;;;;;5092792;28;20028;-65
2022/05/13 03:03:40;;;;;;;1.70;0.60;;;13.80;64.20;;;;;;5092020;28;20228;-65
2022/05/13 03:06:06;;;;;;;0.88;0.57;;;13.80;64.20;;;;;;5091656;28;20024;-65
2022/05/13 03:08:31;;;;;;;2.47;0.82;;;13.90;64.30;;;;;;5106846;28;20102;-65
2022/05/13 03:10:57;;;;;;;2.83;0.90;;;13.80;64.80;;;;;;5092273;28;20467;-65
2022/05/13 03:13:23;;;;;;;1.08;0.50;;;13.90;64.80;;;;;;5091081;28;20047;-60
2022/05/13 03:15:48;;;;;;;1.30;0.65;;;13.90;65.00;;;;;;5090591;28;20402;-60
2022/05/13 03:18:14;;;;;;;0.90;0.80;;;13.90;65.40;;;;;;5093377;28;20032;-60
2022/05/13 03:20:41;;;;;;;4.13;1.00;;;13.80;65.70;;;;;;5092049;28;20035;-60
2022/05/13 03:23:07;;;;;;;4.10;0.98;;;13.80;65.50;;;;;;5112026;28;20028;-60
2022/05/13 03:25:33;;;;;;;1.55;0.73;;;13.80;65.60;;;;;;5109780;28;20680;-60
2022/05/13 03:27:59;;;;;;;0.80;0.80;;;13.80;65.70;;;;;;5093164;28;20023;-60
2022/05/13 03:30:26;;;;;;;4.57;0.73;;;13.80;65.90;;;;;;5111617;28;20023;-60
2022/05/13 03:32:53;;;;;;;3.22;0.98;;;13.70;66.10;;;;;;5071088;28;20450;-60
2022/05/13 03:35:20;;;;;;;2.10;0.80;;;13.70;66.50;;;;;;5052295;28;20028;-60
2022/05/13 03:37:46;;;;;;;3.13;0.88;;;13.70;67.00;;;;;;5088632;28;20521;-60
2022/05/13 03:40:13;;;;;;;2.25;1.45;;;13.70;67.10;;;;;;5103901;28;20115;-60
2022/05/13 03:42:39;;;;;;;3.55;1.77;;;13.70;67.00;;;;;;5111212;28;20073;-61
2022/05/13 03:45:07;;;;;;;4.07;1.50;;;13.70;67.50;;;;;;5108397;28;20036;-60
2022/05/13 03:47:33;;;;;;;1.70;1.23;;;13.70;67.70;;;;;;5098357;28;20028;-65
2022/05/13 03:49:58;;;;;;;4.38;1.08;;;13.70;67.80;;;;;;5090733;28;20039;-65
2022/05/13 03:52:25;;;;;;;2.50;1.42;;;13.70;67.70;;;;;;5092138;28;20031;-65
2022/05/13 03:54:51;;;;;;;3.38;0.95;;;13.70;67.70;;;;;;5089212;28;20016;-65
2022/05/13 03:57:16;;;;;;;1.27;0.70;;;13.60;67.60;;;;;;5112304;28;20512;-65
2022/05/13 03:59:42;;;;;;;7.70;1.92;;;13.70;67.90;;;;;;5095483;28;20044;-65
2022/05/13 04:02:08;;;;;;;4.28;1.48;;;13.60;68.40;;;;;;5091166;28;20382;-66
2022/05/13 04:10:05;;;;;;;3.83;1.25;;;13.60;68.70;;;;;;5091565;28;20132;-65
2022/05/13 04:17:59;;;;;;;2.25;1.23;;;13.50;69.60;;;;;;5075572;28;20043;-65
2022/05/13 04:20:25;;;;;;;7.38;1.95;;;13.50;69.50;;;;;;5089958;28;20036;-65
2022/05/13 04:22:51;;;;;;;1.52;1.42;;;13.50;69.70;;;;;;5076235;28;20466;-65
2022/05/13 04:25:17;;;;;;;3.30;1.90;;;13.50;69.80;;;;;;5097795;28;20512;-65
2022/05/13 04:27:43;;;;;;;1.55;1.30;;;13.40;70.20;;;;;;5090958;28;20036;-65
2022/05/13 04:30:10;;;;;;;4.15;1.10;;;13.40;70.40;;;;;;5091406;28;20375;-65
2022/05/13 04:32:35;;;;;;;5.80;1.73;;;13.40;70.40;;;;;;5072852;28;20026;-65
2022/05/13 04:35:01;;;;;;;7.45;1.65;;;13.40;70.80;;;;;;5091564;28;20024;-65
2022/05/13 04:37:27;;;;;;;3.67;1.05;;;13.40;70.80;;;;;;5107905;28;20020;-65
2022/05/13 04:39:53;;;;;;;5.47;1.70;;;13.40;70.90;;;;;;5093424;28;20031;-60
2022/05/13 04:45:05;;;;;;;1.83;1.08;;;13.40;70.90;;;;;;5109366;28;20046;-60
2022/05/13 04:48:32;;;;;;;3.85;1.55;;;13.40;70.80;;;;;;5093372;28;20028;-61
2022/05/13 04:50:26;;;;;;;5.43;1.60;;;13.40;71.00;;;;;;5075445;28;21419;-60
2022/05/13 04:52:52;;;;;;;2.47;1.58;;;13.40;71.40;;;;;;5090180;28;20047;-60
2022/05/13 04:55:17;;;;;;;1.67;1.20;;;13.40;71.40;;;;;;5089060;28;20028;-61
2022/05/13 04:57:43;;;;;;;6.15;1.40;;;13.40;71.30;;;;;;5070554;28;20035;-60
2022/05/13 05:00:09;;;;;;;1.88;1.23;;;13.40;71.30;;;;;;5089308;28;20367;-61
2022/05/13 05:02:35;;;;;;;11.98;1.52;;;13.50;71.30;;;;;;5109600;28;20036;-61
2022/05/13 05:05:00;;;;;;;1.15;1.05;;;13.50;71.20;;;;;;5090154;28;20032;-61
2022/05/13 05:07:26;;;;;;;1.67;1.23;;;13.50;71.30;;;;;;5086764;28;20032;-61
2022/05/13 05:09:52;;;;;;;4.80;1.60;;;13.50;71.60;;;;;;5089340;28;20050;-61
2022/05/13 05:12:17;;;;;;;1.73;1.23;;;13.50;71.70;;;;;;5086851;28;20036;-60
2022/05/13 05:14:44;;;;;;;2.28;1.38;;;13.50;71.70;;;;;;5108936;28;20028;-60
2022/05/13 05:17:09;;;;;;;6.35;1.95;;;13.50;72.00;;;;;;5090076;28;20028;-60
2022/05/13 05:19:35;;;;;;;4.68;1.80;;;13.50;72.30;;;;;;5104176;28;20032;-61
2022/05/13 05:22:01;;;;;;;5.85;2.78;;;13.50;72.20;;;;;;5089638;28;20394;-60
2022/05/13 05:24:27;;;;;;;3.45;1.90;;;13.50;72.50;;;;;;5079858;28;20347;-60
2022/05/13 05:26:53;;;;;;;9.43;2.00;;;13.60;72.50;;;;;;5091758;28;20031;-60
2022/05/13 05:29:18;;;;;;;8.85;2.67;;;13.60;72.80;;;;;;5100677;28;20554;-65
2022/05/13 05:31:44;;;;;;;6.78;2.05;;;13.60;72.80;;;;;;5095600;28;20487;-66
2022/05/13 05:34:11;;;;;;;3.70;1.83;;;13.60;72.80;;;;;;5095569;28;20028;-66
2022/05/13 05:36:37;;;;;;;6.07;1.95;;;13.70;72.60;;;;;;5076902;28;20024;-60
2022/05/13 05:39:03;;;;;;;9.25;2.40;;;13.70;72.70;;;;;;5074507;28;20115;-60
2022/05/13 05:41:29;;;;;;;4.10;2.05;;;13.70;72.80;;;;;;5093495;28;20487;-61
2022/05/13 05:43:54;;;;;;;2.17;1.85;;;13.80;72.90;;;;;;5074730;28;20032;-60
2022/05/13 05:46:20;;;;;;;1.67;1.42;;;13.90;72.90;;;;;;5092713;28;20036;-60
2022/05/13 05:48:46;;;;;;;5.43;2.05;;;13.80;72.70;;;;;;5092595;28;20074;-60
2022/05/13 05:51:11;;;;;;;4.55;1.73;;;13.80;72.80;;;;;;5109043;28;20342;-60
2022/05/13 05:59:06;;;;;;;3.90;2.50;;;13.80;73.60;;;;;;5099297;28;20511;-65
2022/05/13 06:01:32;;;;;;;6.97;1.73;;;13.80;74.40;;;;;;5098066;28;20020;-65
2022/05/13 06:03:59;;;;;;;4.30;2.33;;;13.80;74.40;;;;;;5095176;28;20028;-65
2022/05/13 06:06:25;;;;;;;5.30;2.20;;;13.70;74.60;;;;;;5076849;28;20513;-65
2022/05/13 06:08:54;;;;;;;6.70;1.95;;;13.80;74.60;;;;;;5094773;28;20135;-67
2022/05/13 06:11:20;;;;;;;9.02;2.50;;;13.80;74.60;;;;;;5094644;28;20040;-67
2022/05/13 06:13:46;;;;;;;2.92;1.73;;;13.90;74.60;;;;;;5094575;28;20032;-65
2022/05/13 06:16:11;;;;;;;3.17;1.85;;;13.90;75.00;;;;;;5095012;28;20536;-66
2022/05/13 06:18:38;;;;;;;4.93;2.33;;;13.80;74.70;;;;;;5094078;28;20028;-65
2022/05/13 06:21:04;;;;;;;4.18;2.58;;;13.90;75.00;;;;;;5079351;28;20059;-60
2022/05/13 06:23:30;;;;;;;3.15;1.90;;;13.90;75.00;;;;;;5074327;28;20039;-60
2022/05/13 06:25:55;;;;;;;1.95;1.85;;;13.90;75.10;;;;;;5092129;28;20037;-60
2022/05/13 06:28:21;;;;;;;8.90;2.20;;;14.10;86.80;;;;;;5093919;28;20064;-65
2022/05/13 06:30:47;;;;;;;3.67;2.42;;;13.50;80.60;;;;;;5092001;28;20060;-65
2022/05/13 06:33:13;;;;;;;2.47;2.20;;;14.00;75.40;;;;;;5094636;28;20028;-65
2022/05/13 06:35:39;;;;;;;2.33;2.13;;;13.90;75.40;;;;;;5105264;28;20046;-60
2022/05/13 06:38:04;;;;;;;7.07;2.78;;;13.90;75.60;;;;;;5094522;28;20028;-65
2022/05/13 06:40:30;;;;;;;3.05;2.05;;;13.90;75.70;;;;;;5090968;28;20483;-61
2022/05/13 06:42:56;;;;;;;17.92;2.42;;;14.00;76.10;;;;;;5096362;28;20031;-60
2022/05/13 06:45:22;;;;;;;6.10;2.75;;;14.10;76.20;;;;;;5111677;28;20490;-60
2022/05/13 06:47:48;;;;;;;5.55;2.83;;;14.10;76.30;;;;;;5091591;28;20039;-60
2022/05/13 06:50:17;;;;;;;10.35;2.67;;;14.10;76.30;;;;;;5112264;28;20036;-61
2022/05/13 06:52:43;;;;;;;6.22;2.95;;;14.10;76.10;;;;;;5093908;28;20085;-61
2022/05/13 06:55:12;;;;;;;3.47;2.67;;;14.20;76.10;;;;;;5094791;28;20410;-60
2022/05/13 06:57:38;;;;;;;4.68;2.25;;;14.20;75.80;;;;;;5092966;28;20027;-65
2022/05/13 07:00:06;;;;;;;9.02;3.08;;;14.30;75.90;;;;;;5095053;28;20034;-65
2022/05/13 07:02:32;;;;;;;5.50;2.88;;;14.30;76.10;;;;;;5095026;28;20065;-65
2022/05/13 07:04:58;;;;;;;3.78;2.25;;;14.40;76.10;;;;;;5093918;28;20024;-65
2022/05/13 07:07:23;;;;;;;2.45;2.08;;;14.40;75.80;;;;;;5093627;28;20024;-65
2022/05/13 07:09:49;;;;;;;7.30;2.17;;;14.40;75.80;;;;;;5074863;28;20507;-65
2022/05/13 07:12:16;;;;;;;5.57;2.90;;;14.50;75.70;;;;;;5069853;28;20090;-65
2022/05/13 07:14:41;;;;;;;4.10;2.40;;;14.50;75.80;;;;;;5085911;28;20078;-65
2022/05/13 07:17:07;;;;;;;4.35;2.22;;;14.50;75.70;;;;;;5087758;28;20016;-65
2022/05/13 07:19:33;;;;;;;3.10;2.22;;;;;;;;;;5093361;28;20024;-65
2022/05/13 07:22:00;;;;;;;5.70;1.85;;;14.60;74.70;;;;;;5088545;28;20028;-65
2022/05/13 07:24:26;;;;;;;5.85;2.35;;;14.70;75.20;;;;;;5075857;28;20082;-65
2022/05/13 07:26:52;;;;;;;6.60;2.53;;;14.70;75.00;;;;;;5096335;28;20074;-65
2022/05/13 07:29:18;;;;;;;3.22;2.15;;;14.80;74.80;;;;;;5081793;28;20032;-65
2022/05/13 07:31:44;;;;;;;4.63;2.58;;;14.90;74.60;;;;;;5105182;28;20103;-66
2022/05/13 07:34:10;;;;;;;6.93;2.30;;;15.00;74.30;;;;;;5055252;28;20060;-66
2022/05/13 07:36:36;;;;;;;8.73;2.75;;;15.10;74.10;;;;;;5082971;28;20028;-66
2022/05/13 07:41:47;;;;;;;2.75;2.10;;;15.30;72.80;;;;;;5087140;28;20055;-65
2022/05/13 07:44:13;;;;;;;2.45;2.25;;;16.20;74.70;;;;;;5096582;28;20035;-65
2022/05/13 07:46:38;;;;;;;11.23;2.25;;;15.40;72.80;;;;;;5112673;28;20071;-65
2022/05/13 07:49:05;;;;;;;7.82;2.58;;;15.50;72.20;;;;;;5088370;28;20082;-65
2022/05/13 07:51:31;;;;;;;5.05;2.90;;;15.60;71.80;;;;;;5092007;28;20028;-66
2022/05/13 07:53:56;;;;;;;4.35;2.25;;;15.60;71.50;;;;;;5097677;28;20020;-66
2022/05/13 07:56:22;;;;;;;3.38;2.58;;;15.60;71.40;;;;;;5112670;28;20067;-65
2022/05/13 07:58:48;;;;;;;3.42;2.35;;;15.60;71.30;;;;;;5100019;28;20024;-66
2022/05/13 08:01:14;;;;;;;3.63;2.10;;;15.60;70.90;;;;;;5091792;28;20039;-66
2022/05/13 08:03:41;;;;;;;8.45;2.53;;;15.50;70.80;;;;;;5071958;28;20050;-66
2022/05/13 08:06:08;;;;;;;3.58;2.15;;;15.50;70.90;;;;;;5090312;28;20036;-61
2022/05/13 08:08:37;;;;;;;5.15;2.80;;;15.50;71.10;;;;;;5068059;28;20052;-62
2022/05/13 08:11:06;;;;;;;6.50;2.30;;;15.50;71.10;;;;;;5055713;28;20490;-61
2022/05/13 08:13:33;;;;;;;6.20;3.08;;;15.40;71.80;;;;;;5053433;28;20170;-61
2022/05/13 08:16:08;;;;;;;3.92;2.58;;;15.40;71.30;;;;;;5059351;28;20527;-62
2022/05/13 08:18:34;;;;;;;2.42;1.88;;;15.40;71.60;;;;;;5064584;28;20028;-61
2022/05/13 08:21:01;;;;;;;2.95;2.17;;;15.40;71.50;;;;;;5059144;28;20564;-61
2022/05/13 08:23:27;;;;;;;7.13;1.85;;;15.40;71.50;;;;;;5056510;28;20028;-61
2022/05/13 08:25:53;;;;;;;4.82;2.88;;;15.40;71.50;;;;;;5071476;28;20039;-66
2022/05/13 08:28:21;;;;;;;3.40;2.20;;;15.30;71.50;;;;;;5066719;28;20050;-66
2022/05/13 08:30:46;;;;;;;3.22;2.17;;;15.20;71.40;;;;;;5061414;28;20025;-66
2022/05/13 08:33:13;;;;;;;7.18;2.03;;;;;;;;;;5062526;28;20033;-66
2022/05/13 08:36:41;;;;;;;4.70;1.70;;;15.20;70.90;;;;;;5070323;28;20123;-65
2022/05/13 08:39:07;;;;;;;3.17;2.05;;;15.20;71.70;;;;;;5074595;28;20033;-60
2022/05/13 08:41:55;;;;;;;8.75;2.70;;;15.40;71.70;;;;;;5059734;28;20068;-60
2022/05/13 08:44:21;;;;;;;2.05;1.65;;;15.60;71.40;;;;;;5074852;28;20032;-60
2022/05/13 08:47:03;;;;;;;3.35;2.10;;;15.70;70.90;;;;;;5059630;28;20036;-60
2022/05/13 08:49:31;;;;;;;;;;;15.80;70.00;;;;;;5059955;28;20470;-60
2022/05/13 08:55:07;;;;;;;1.73;1.27;;;15.80;69.50;;;;;;5045922;28;20506;-60
2022/05/13 08:57:40;;;;;;;4.18;2.42;;;15.80;69.60;;;;;;5066687;28;20032;-60
2022/05/13 09:00:17;;;;;;;1.92;1.38;;;15.80;69.70;;;;;;5059867;28;20055;-60
2022/05/13 09:03:14;;;;;;;1.98;1.45;;;15.80;69.70;;;;;;5057753;28;20029;-60
2022/05/13 09:05:53;;;;;;;1.35;1.20;;;15.90;69.40;;;;;;5028949;28;20069;-60
2022/05/13 09:08:20;;;;;;;1.80;1.38;;;16.10;68.80;;;;;;5057587;28;20087;-60
2022/05/13 09:11:08;;;;;;;2.53;1.17;;;16.20;68.40;;;;;;5057848;28;20028;-60
2022/05/13 09:14:08;;;;;;;1.50;1.17;;;16.30;66.50;;;;;;5057827;28;20048;-60
2022/05/13 09:16:48;;;;;;;0.77;0.70;;;16.30;66.00;;;;;;5061575;28;20067;-65
2022/05/13 09:19:22;;;;;;;0.45;0.45;;;16.40;64.90;;;;;;5050810;28;20107;-67
2022/05/13 09:21:48;;;;;;;3.20;1.00;;;16.50;65.10;;;;;;5063323;28;21722;-65
2022/05/13 09:24:14;;;;;;;0.52;0.52;;;16.70;63.50;;;;;;5068353;28;20056;-61
2022/05/13 09:26:41;;;;;;;3.25;1.02;;;16.80;62.90;;;;;;5060799;28;20037;-60
2022/05/13 09:29:14;;;;;;;2.70;0.80;;;16.80;62.20;;;;;;5052979;28;20555;-61
2022/05/13 09:31:57;;;;;;;0.75;0.50;;;16.80;61.90;;;;;;5049504;28;20040;-60
2022/05/13 09:37:18;;;;;;;0.90;0.85;;;17.10;60.20;;;;;;5105224;27;20113;-59
2022/05/13 09:39:46;;;;;;;1.10;0.75;;;17.20;59.50;;;;;;5102375;27;20052;-60
2022/05/13 09:42:20;;;;;;;3.72;0.80;;;17.30;58.60;;;;;;5072718;28;20048;-60
2022/05/13 09:44:46;;;;;;;5.72;0.98;;;17.30;58.70;;;;;;5097455;28;20035;-60
2022/05/13 09:47:24;;;;;;;0.90;0.90;;;17.20;58.90;;;;;;5105061;28;20024;-60
2022/05/13 09:49:52;;;;;;;1.45;1.05;;;17.10;59.30;;;;;;5105390;28;20038;-60
2022/05/13 09:52:35;;;;;;;4.32;0.80;;;17.20;59.40;;;;;;5115945;28;20031;-65
2022/05/13 09:55:31;;;;;;;1.42;1.02;;;17.40;59.30;;;;;;5077259;28;20032;-65
2022/05/13 09:58:01;;;;;;;1.10;1.00;;;17.50;58.00;;;;;;5094552;28;20036;-65
2022/05/13 10:00:39;;;;;;;1.27;1.10;;;17.40;58.10;;;;;;5107394;28;20055;-65
2022/05/13 10:03:08;;;;;;;1.38;1.20;;;17.30;58.00;;;;;;5103471;28;20043;-65
2022/05/13 10:05:34;;;;;;;1.60;1.20;;;17.20;58.40;;;;;;5106114;28;20451;-65
2022/05/13 10:08:08;;;;;;;0.52;0.52;;;17.10;58.60;;;;;;5107988;28;20032;-65
2022/05/13 10:16:23;;;;;;;1.95;0.75;;;17.40;58.60;;;;;;5110278;28;20490;-65
2022/05/13 10:19:01;;;;;;;5.20;1.20;;;17.40;58.90;;;;;;5123165;28;20043;-66
2022/05/13 10:21:45;;;;;;;3.20;1.15;;;17.50;57.90;;;;;;5097305;28;20355;-66
2022/05/13 10:24:14;;;;;;;0.90;0.90;;;17.60;57.80;;;;;;5114245;28;20077;-66
2022/05/13 10:26:42;;;;;;;0.70;0.70;;;17.70;58.00;;;;;;5098591;28;20028;-65
2022/05/13 10:29:22;;;;;;;0.93;0.85;;;17.80;58.30;;;;;;5105317;28;20041;-60
2022/05/13 10:31:49;;;;;;;0.80;0.70;;;18.00;58.10;;;;;;5100451;28;20509;-60
2022/05/13 10:34:24;;;;;;;0.73;0.70;;;18.10;57.20;;;;;;5104827;28;20040;-66
2022/05/13 10:36:58;;;;;;;2.45;0.60;;;18.20;57.40;;;;;;5100086;28;20048;-66
2022/05/13 10:39:30;;;;;;;0.80;0.70;;;18.40;57.50;;;;;;5086750;28;20051;-65
2022/05/13 10:41:59;;;;;;;0.60;0.60;;;18.60;55.60;;;;;;5094988;28;20031;-65
2022/05/13 10:44:49;;;;;;;2.28;0.73;;;18.70;54.90;;;;;;5111194;28;20393;-65
2022/05/13 10:47:37;;;;;;;0.85;0.85;;;18.70;54.30;;;;;;5097355;28;20520;-65
2022/05/13 10:50:04;;;;;;;0.57;0.57;;;18.70;53.90;;;;;;5088983;28;20118;-65
2022/05/13 10:52:36;;;;;;;0.73;0.60;;;18.90;54.40;;;;;;5078483;28;20054;-65
2022/05/13 10:55:16;;;;;;;0.73;0.70;;;19.00;54.10;;;;;;5086408;28;20389;-62
2022/05/13 10:58:13;;;;;;;0.90;0.57;;;19.10;53.90;;;;;;5085889;28;20028;-61
2022/05/13 11:01:01;;;;;;;1.88;0.80;;;19.10;53.10;;;;;;5085778;28;20024;-61
2022/05/13 11:03:42;;;;;;;1.15;0.55;;;19.10;52.10;;;;;;5079116;28;20069;-61
2022/05/13 11:06:44;;;;;;;2.00;1.05;;;19.10;52.20;;;;;;5090723;28;20028;-61
2022/05/13 11:09:28;;;;;;;2.80;1.10;;;19.00;52.20;;;;;;5054203;28;20050;-61
2022/05/13 11:12:10;;;;;;;3.03;1.00;;;18.90;52.10;;;;;;5071211;28;20777;-62
2022/05/13 11:15:24;;;;;;;0.60;0.60;;;18.80;52.50;;;;;;5064178;28;20023;-62
2022/05/13 11:18:09;;;;;;;0.65;0.40;;;18.60;52.30;;;;;;5041925;28;20114;-62
2022/05/13 11:20:57;;;;;;;0.98;0.57;;;18.50;52.90;;;;;;5081952;28;20040;-61
2022/05/13 11:23:29;;;;;;;0.77;0.68;;;18.60;53.50;;;;;;5084853;28;20356;-62
2022/05/13 11:26:00;;;;;;;2.88;0.60;;;18.80;53.00;;;;;;5085687;28;20028;-62
2022/05/13 11:28:41;;;;;;;1.92;0.63;;;18.80;52.60;;;;;;5086113;28;20483;-62
2022/05/13 11:31:36;;;;;;;3.03;0.52;;;18.80;52.70;;;;;;5087787;28;20020;-62
2022/05/13 11:34:36;;;;;;;0.70;0.60;;;18.80;53.00;;;;;;5051849;28;20083;-62
2022/05/13 11:37:05;;;;;;;2.67;0.63;;;18.90;52.10;;;;;;5095251;28;20067;-61
2022/05/13 11:39:40;;;;;;;1.27;0.52;;;18.80;52.30;;;;;;5084695;28;20128;-62
2022/05/13 11:42:32;;;;;;;0.50;0.50;;;18.90;52.40;;;;;;5091178;28;20073;-62
2022/05/13 11:45:16;;;;;;;3.55;0.70;;;18.90;51.90;;;;;;5066962;28;20148;-62
2022/05/13 11:48:19;;;;;;;0.82;0.55;;;18.80;51.70;;;;;;5083439;28;20039;-61
2022/05/13 11:50:45;;;;;;;0.70;0.70;;;18.80;52.30;;;;;;5085352;28;20032;-62
2022/05/13 11:53:10;;;;;;;0.88;0.77;;;18.90;52.30;;;;;;5082911;28;20383;-62
2022/05/13 11:55:41;;;;;;;0.93;0.88;;;18.90;51.90;;;;;;5082005;28;20083;-62
2022/05/13 11:58:07;;;;;;;2.13;0.80;;;18.90;51.90;;;;;;5088191;28;20039;-62
2022/05/13 12:00:44;;;;;;;3.03;1.10;;;19.00;51.50;;;;;;5082083;28;20121;-61
2022/05/13 12:03:11;;;;;;;1.17;0.80;;;19.20;51.50;;;;;;5077612;28;20036;-61
2022/05/13 12:05:40;;;;;;;0.65;0.50;;;19.30;51.80;;;;;;5075362;28;20024;-61
2022/05/13 12:08:16;;;;;;;3.13;0.82;;;19.30;51.80;;;;;;5082645;28;20024;-61
2022/05/13 12:11:00;;;;;;;1.25;0.52;;;19.30;51.70;;;;;;5082908;28;20125;-61
2022/05/13 12:13:40;;;;;;;2.28;0.90;;;19.20;51.30;;;;;;5080774;28;20363;-62
2022/05/13 12:16:09;;;;;;;0.50;0.50;;;19.20;51.30;;;;;;5079770;28;20032;-64
2022/05/13 12:19:00;;;;;;;0.65;0.40;;;19.20;51.30;;;;;;5082779;28;20036;-64
2022/05/13 12:21:34;;;;;;;0.60;0.60;;;19.20;51.10;;;;;;5072192;28;20060;-61
2022/05/13 12:24:13;;;;;;;1.55;0.70;;;19.10;51.50;;;;;;5087081;28;20024;-64
2022/05/13 12:27:03;;;;;;;1.40;0.63;;;19.10;51.60;;;;;;5081791;28;20040;-62
2022/05/13 12:29:36;;;;;;;0.40;0.40;;;19.10;51.60;;;;;;5078328;28;20107;-64
2022/05/13 12:32:02;;;;;;;0.70;0.60;;;19.30;52.00;;;;;;5071979;28;20025;-61
2022/05/13 12:37:37;;;;;;;1.63;0.90;;;19.30;51.40;;;;;;5084579;28;20046;-64
2022/05/13 12:40:03;;;;;;;0.60;0.50;;;19.40;51.50;;;;;;5083421;28;20036;-64
2022/05/13 12:42:44;;;;;;;0.45;0.45;;;19.50;51.70;;;;;;5079430;28;20021;-64
2022/05/13 12:45:39;;;;;;;0.75;0.60;;;19.60;50.70;;;;;;5078463;28;20055;-64
2022/05/13 12:48:06;;;;;;;0.65;0.45;;;19.70;50.70;;;;;;5079342;28;20028;-64
2022/05/13 12:51:15;;;;;;;1.08;0.60;;;19.70;50.80;;;;;;5075464;28;20375;-64
2022/05/13 12:55:23;;;;;;;0.35;0.35;;;19.80;49.60;;;;;;5072028;28;20107;-63
2022/05/13 12:57:59;;;;;;;2.05;0.57;;;19.80;50.50;;;;;;5075658;28;20425;-61
2022/05/13 13:00:35;;;;;;;1.33;0.50;;;19.90;49.70;;;;;;5038615;28;20029;-61
2022/05/13 13:03:06;;;;;;;1.55;0.60;;;20.10;49.60;;;;;;5048564;28;20061;-61
2022/05/13 13:05:34;;;;;;;0.50;0.40;;;20.30;48.40;;;;;;5050082;28;20079;-62
2022/05/13 13:08:19;;;;;;;1.15;0.68;;;20.30;48.40;;;;;;5049191;28;20050;-61
2022/05/13 13:11:09;;;;;;;1.75;0.75;;;20.50;47.80;;;;;;5052636;28;20035;-62
2022/05/13 13:14:04;;;;;;;1.13;0.50;;;20.50;47.90;;;;;;5060364;28;20027;-61
2022/05/13 13:16:39;;;;;;;0.65;0.55;;;20.60;48.00;;;;;;5049701;28;20488;-62
2022/05/13 13:19:08;;;;;;;0.80;0.60;;;20.60;48.30;;;;;;5056913;28;20049;-61
2022/05/13 13:21:34;;;;;;;2.05;0.68;;;20.60;47.20;;;;;;5043966;28;20018;-61
2022/05/13 13:24:00;;;;;;;1.05;0.40;;;20.50;46.10;;;;;;5066526;28;20082;-62
2022/05/13 13:26:28;;;;;;;0.70;0.57;;;20.50;47.00;;;;;;5048364;28;20029;-61
2022/05/13 13:28:54;;;;;;;0.50;0.50;;;20.50;47.20;;;;;;5046811;28;20026;-64
2022/05/13 13:31:26;;;;;;;1.95;0.80;;;20.50;46.80;;;;;;5050015;28;20045;-61
2022/05/13 13:33:57;;;;;;;0.75;0.63;;;20.60;47.40;;;;;;5045009;28;20021;-61
2022/05/13 13:48:53;;;;;;;1.10;0.82;;;20.60;46.10;;;;;;5106687;27;20112;-60
2022/05/13 13:51:26;;;;;;;1.73;0.70;;;20.40;47.60;;;;;;5093811;28;20028;-61
2022/05/13 13:53:55;;;;;;;;;;;20.40;47.70;;;;;;5103348;28;20038;-61
2022/05/13 13:56:22;;;;;;;2.55;0.95;;;20.50;48.00;;;;;;5070241;28;19939;-61
2022/05/13 13:59:12;;;;;;;5.20;0.90;;;20.70;48.00;;;;;;5086233;28;20059;-62